Time;durP1;ratioP1;P1;durP2;ratioP2;P2;SDS_P1;SDS_P2;PMS_P1;PMS_P2;Temp;Humidity;BMP_temperature;BMP_pressure;BME280_temperature;BME280_humidity;BME280_pressure;Samples;Min_cycle;Max_cycle;Signal;HPM_P1;HPM_P2
2021/01/23 00:02:02;;;;;;;13.80;9.03;;;1.30;97.70;;;;;;5080281;28;20048;-80
2021/01/23 00:04:29;;;;;;;15.87;9.87;;;1.30;97.70;;;;;;5080737;28;20044;-81
2021/01/23 00:06:56;;;;;;;14.47;8.43;;;1.30;97.70;;;;;;5064983;28;20040;-81
2021/01/23 00:09:24;;;;;;;16.07;10.20;;;1.30;97.70;;;;;;5064636;28;20047;-82
2021/01/23 00:11:50;;;;;;;18.37;10.00;;;1.30;97.70;;;;;;5095582;28;20056;-81
2021/01/23 00:14:17;;;;;;;14.40;10.00;;;1.30;97.70;;;;;;5048286;28;20031;-85
2021/01/23 00:16:43;;;;;;;15.70;9.77;;;1.30;97.70;;;;;;5030578;28;20039;-81
2021/01/23 00:19:10;;;;;;;13.40;8.30;;;1.20;97.70;;;;;;5085306;28;20040;-81
2021/01/23 00:21:37;;;;;;;16.27;9.77;;;1.30;97.70;;;;;;5084259;28;20055;-82
2021/01/23 00:24:04;;;;;;;14.17;8.27;;;1.30;97.70;;;;;;5080088;28;20052;-81
2021/01/23 00:26:31;;;;;;;14.47;8.40;;;1.30;97.80;;;;;;5049854;28;20051;-81
2021/01/23 00:28:57;;;;;;;13.20;9.10;;;1.30;97.80;;;;;;5069687;28;20738;-81
2021/01/23 00:31:24;;;;;;;17.43;10.10;;;1.30;97.80;;;;;;5032324;28;20028;-81
2021/01/23 00:33:50;;;;;;;15.53;9.10;;;1.30;97.70;;;;;;5052233;28;20039;-81
2021/01/23 00:36:17;;;;;;;15.10;9.37;;;1.30;97.80;;;;;;5082878;28;20028;-80
2021/01/23 00:38:44;;;;;;;17.10;9.73;;;1.30;97.70;;;;;;5081219;28;20793;-81
2021/01/23 00:41:11;;;;;;;10.33;6.23;;;1.30;97.70;;;;;;5080798;28;20043;-81
2021/01/23 00:43:37;;;;;;;15.17;8.87;;;1.30;97.70;;;;;;5079623;28;20040;-81
2021/01/23 00:46:04;;;;;;;18.83;9.13;;;1.30;97.80;;;;;;5082509;28;20036;-82
2021/01/23 00:48:31;;;;;;;17.03;9.53;;;1.30;97.70;;;;;;5065310;28;20032;-78
2021/01/23 00:50:57;;;;;;;14.47;8.70;;;1.30;97.70;;;;;;5066279;28;20055;-81
2021/01/23 00:53:24;;;;;;;14.20;7.67;;;1.30;97.70;;;;;;5067019;28;20426;-82
2021/01/23 00:55:51;;;;;;;15.00;9.73;;;1.30;97.70;;;;;;5050810;28;20044;-81
2021/01/23 00:58:18;;;;;;;13.40;7.50;;;1.30;97.80;;;;;;5083491;28;20432;-82
2021/01/23 01:00:44;;;;;;;14.67;8.13;;;1.30;97.80;;;;;;5068070;28;20054;-81
2021/01/23 01:03:11;;;;;;;10.00;6.00;;;1.30;97.80;;;;;;5077781;28;20756;-81
2021/01/23 01:05:47;;;;;;;15.67;8.30;;;1.30;97.80;;;;;;5065910;28;20771;-81
2021/01/23 01:08:15;;;;;;;15.43;8.17;;;1.30;97.80;;;;;;5066989;28;20040;-82
2021/01/23 01:10:45;;;;;;;16.43;8.23;;;1.30;97.70;;;;;;5081695;28;20036;-81
2021/01/23 01:13:13;;;;;;;14.13;9.53;;;1.30;97.80;;;;;;5068796;28;20035;-81
2021/01/23 01:15:40;;;;;;;21.57;10.60;;;1.30;97.70;;;;;;5067768;28;20044;-81
2021/01/23 01:18:07;;;;;;;14.63;8.13;;;1.30;97.70;;;;;;5059696;28;20040;-81
2021/01/23 01:20:33;;;;;;;11.90;7.40;;;1.30;97.70;;;;;;5084787;28;20040;-81
2021/01/23 01:23:00;;;;;;;14.47;8.57;;;1.30;97.70;;;;;;5067425;28;20045;-81
2021/01/23 01:25:27;;;;;;;17.77;9.97;;;1.30;97.70;;;;;;5066779;28;20494;-81
2021/01/23 01:27:54;;;;;;;14.87;9.30;;;1.30;97.70;;;;;;5048224;28;20043;-82
2021/01/23 01:30:22;;;;;;;18.73;9.80;;;1.20;97.70;;;;;;5053758;28;20043;-82
2021/01/23 01:32:49;;;;;;;19.00;8.87;;;1.20;97.70;;;;;;5076217;28;20052;-82
2021/01/23 01:35:16;;;;;;;13.10;8.57;;;1.20;97.70;;;;;;5065432;28;20040;-82
2021/01/23 01:37:44;;;;;;;12.90;8.63;;;1.20;97.80;;;;;;5083219;28;20044;-81
2021/01/23 01:40:11;;;;;;;13.03;8.20;;;1.20;97.80;;;;;;5068134;28;20394;-82
2021/01/23 01:42:38;;;;;;;11.80;7.70;;;1.20;97.80;;;;;;5084748;28;20052;-82
2021/01/23 01:45:05;;;;;;;9.53;5.97;;;1.10;97.80;;;;;;5084076;28;20066;-82
2021/01/23 01:47:33;;;;;;;13.70;7.73;;;1.10;97.80;;;;;;5067339;28;20043;-82
2021/01/23 01:50:01;;;;;;;9.73;6.10;;;1.10;98.10;;;;;;5068008;28;20778;-82
2021/01/23 01:52:28;;;;;;;12.77;7.57;;;1.10;97.80;;;;;;5068202;28;20055;-82
2021/01/23 01:54:55;;;;;;;11.33;7.20;;;1.10;97.90;;;;;;5084679;28;20043;-82
2021/01/23 01:57:22;;;;;;;14.97;7.87;;;1.10;97.80;;;;;;5064314;28;20044;-82
2021/01/23 01:59:49;;;;;;;11.90;7.70;;;1.10;97.80;;;;;;5073486;28;20036;-83
2021/01/23 02:02:25;;;;;;;13.53;8.67;;;1.10;97.80;;;;;;5064754;28;20040;-83
2021/01/23 02:05:05;;;;;;;15.37;8.87;;;1.00;97.80;;;;;;5069989;28;20035;-83
2021/01/23 02:07:47;;;;;;;14.90;8.33;;;1.00;97.80;;;;;;5090867;28;20040;-82
2021/01/23 02:10:33;;;;;;;16.90;9.30;;;1.00;97.80;;;;;;5081094;28;20036;-82
2021/01/23 02:13:28;;;;;;;15.57;8.13;;;1.00;97.80;;;;;;5079161;28;20052;-82
2021/01/23 02:16:04;;;;;;;8.77;6.20;;;1.00;97.80;;;;;;5082592;28;20227;-83
2021/01/23 02:18:40;;;;;;;10.20;6.30;;;0.90;97.80;;;;;;5087301;28;20036;-82
2021/01/23 02:21:45;;;;;;;17.07;9.13;;;0.90;98.10;;;;;;5090330;28;20047;-83
2021/01/23 02:24:19;;;;;;;18.57;8.33;;;1.00;97.90;;;;;;5065013;28;20037;-82
2021/01/23 02:26:57;;;;;;;12.93;7.70;;;1.00;97.90;;;;;;5063366;28;20032;-83
2021/01/23 02:29:59;;;;;;;11.73;7.60;;;1.00;97.90;;;;;;5049729;28;20031;-83
2021/01/23 02:32:28;;;;;;;16.17;8.13;;;1.10;97.80;;;;;;5051091;28;20051;-82
2021/01/23 02:34:57;;;;;;;15.23;8.97;;;1.10;97.80;;;;;;5083437;28;20380;-82
2021/01/23 02:37:24;;;;;;;16.83;9.73;;;1.10;97.80;;;;;;5056520;28;20032;-82
2021/01/23 02:39:52;;;;;;;18.60;11.43;;;1.10;97.80;;;;;;5049492;28;20052;-82
2021/01/23 02:42:19;;;;;;;15.13;9.53;;;1.10;97.80;;;;;;5073097;28;20055;-83
2021/01/23 02:44:45;;;;;;;17.60;10.33;;;1.10;97.80;;;;;;5065693;28;20499;-83
2021/01/23 02:47:12;;;;;;;18.43;10.70;;;1.10;97.80;;;;;;5077242;28;20041;-82
2021/01/23 02:49:39;;;;;;;19.10;11.10;;;1.30;97.90;;;;;;5058981;28;20074;-82
2021/01/23 02:52:16;;;;;;;23.63;13.03;;;1.30;97.90;;;;;;5071449;28;20035;-83
2021/01/23 02:55:09;;;;;;;22.63;12.73;;;1.40;97.90;;;;;;5043894;28;20392;-82
2021/01/23 02:57:39;;;;;;;14.70;9.43;;;1.50;97.80;;;;;;5058849;28;20505;-83
2021/01/23 03:00:08;;;;;;;19.73;12.90;;;1.50;97.70;;;;;;5087876;28;20044;-83
2021/01/23 03:02:37;;;;;;;16.67;11.60;;;1.50;97.60;;;;;;5071771;28;20047;-83
2021/01/23 03:05:04;;;;;;;22.47;11.50;;;1.50;97.60;;;;;;5070752;28;20055;-82
2021/01/23 03:07:31;;;;;;;26.00;13.60;;;1.60;97.60;;;;;;5086724;28;20039;-83
2021/01/23 03:10:02;;;;;;;17.77;9.90;;;1.50;97.70;;;;;;5088061;28;20051;-82
2021/01/23 03:12:29;;;;;;;20.33;12.83;;;1.60;97.70;;;;;;5053549;28;20444;-83
2021/01/23 03:14:55;;;;;;;28.53;15.50;;;1.60;97.70;;;;;;5036788;28;20055;-82
2021/01/23 03:17:22;;;;;;;25.50;15.93;;;1.70;97.80;;;;;;5068583;28;20048;-83
2021/01/23 03:19:48;;;;;;;23.50;13.93;;;1.70;97.70;;;;;;5070818;28;20044;-82
2021/01/23 03:22:15;;;;;;;20.03;11.90;;;1.80;97.70;;;;;;5056827;28;20028;-83
2021/01/23 03:24:41;;;;;;;21.37;13.93;;;1.80;97.70;;;;;;5037252;28;20505;-83
2021/01/23 03:27:08;;;;;;;20.47;13.70;;;1.90;97.70;;;;;;5051650;28;20036;-82
2021/01/23 03:29:34;;;;;;;18.10;12.70;;;1.90;97.70;;;;;;5037543;28;20451;-83
2021/01/23 03:32:01;;;;;;;18.50;11.43;;;2.00;97.70;;;;;;5054327;28;20868;-83
2021/01/23 03:34:27;;;;;;;18.47;10.97;;;2.00;97.60;;;;;;5054056;28;20059;-83
2021/01/23 03:36:54;;;;;;;20.50;12.83;;;2.10;97.60;;;;;;5036263;28;20513;-82
2021/01/23 03:39:20;;;;;;;18.67;12.03;;;2.10;97.60;;;;;;5070842;28;20040;-82
2021/01/23 03:41:47;;;;;;;19.43;13.27;;;2.20;97.60;;;;;;5085916;28;20502;-82
2021/01/23 03:44:13;;;;;;;21.67;14.10;;;2.20;97.50;;;;;;5053339;28;20056;-82
2021/01/23 03:46:40;;;;;;;24.53;13.80;;;2.30;97.50;;;;;;5052252;28;20044;-82
2021/01/23 03:49:06;;;;;;;15.60;8.80;;;2.30;97.50;;;;;;5053505;28;20040;-82
2021/01/23 03:51:33;;;;;;;19.87;9.40;;;2.30;97.50;;;;;;5086822;28;20062;-82
2021/01/23 03:53:59;;;;;;;22.63;13.27;;;2.40;97.50;;;;;;5053427;28;20043;-82
2021/01/23 03:56:26;;;;;;;20.97;14.00;;;2.40;97.50;;;;;;5035366;28;20044;-82
2021/01/23 03:58:52;;;;;;;25.73;13.23;;;2.40;97.40;;;;;;5037030;28;20051;-82
2021/01/23 04:01:19;;;;;;;15.43;11.53;;;2.40;97.40;;;;;;5069683;28;20056;-82
2021/01/23 04:03:45;;;;;;;18.40;12.10;;;2.50;97.50;;;;;;5069900;28;20819;-82
2021/01/23 04:06:12;;;;;;;15.20;10.30;;;2.50;97.40;;;;;;5034614;28;20601;-82
2021/01/23 04:08:39;;;;;;;27.30;15.33;;;2.50;97.50;;;;;;5069746;28;20734;-82
2021/01/23 04:11:05;;;;;;;21.90;13.20;;;2.60;97.50;;;;;;5036756;28;20036;-82
2021/01/23 04:13:32;;;;;;;19.20;12.53;;;2.60;97.50;;;;;;5070111;28;20036;-82
2021/01/23 04:15:58;;;;;;;18.30;11.73;;;2.70;97.50;;;;;;5076511;28;20051;-82
2021/01/23 04:18:25;;;;;;;16.30;10.67;;;2.70;97.50;;;;;;5036986;28;20486;-81
2021/01/23 04:20:51;;;;;;;19.30;11.73;;;2.80;97.50;;;;;;5053061;28;20039;-81
2021/01/23 04:23:18;;;;;;;23.03;12.50;;;2.80;97.50;;;;;;5036786;28;20062;-81
2021/01/23 04:25:44;;;;;;;18.07;9.53;;;2.90;97.50;;;;;;5052478;28;20059;-81
2021/01/23 04:28:14;;;;;;;23.83;13.93;;;2.90;97.50;;;;;;5049812;28;20139;-81
2021/01/23 04:30:45;;;;;;;21.23;12.07;;;3.00;97.60;;;;;;5034062;28;20757;-81
2021/01/23 04:33:12;;;;;;;14.67;9.83;;;3.00;97.60;;;;;;5066493;28;20047;-81
2021/01/23 04:35:39;;;;;;;14.87;9.33;;;3.00;97.60;;;;;;5069899;28;20048;-83
2021/01/23 04:38:05;;;;;;;16.50;9.53;;;3.10;97.60;;;;;;5069012;28;20043;-84
2021/01/23 04:40:32;;;;;;;21.20;11.33;;;3.10;97.50;;;;;;5068940;28;20043;-84
2021/01/23 04:42:59;;;;;;;23.17;12.47;;;3.10;97.50;;;;;;5066955;28;20475;-82
2021/01/23 04:45:25;;;;;;;14.53;9.27;;;3.10;97.50;;;;;;5077269;28;20043;-81
2021/01/23 04:47:53;;;;;;;17.17;10.57;;;3.10;97.50;;;;;;5067290;28;20028;-82
2021/01/23 04:50:20;;;;;;;22.30;13.77;;;3.20;97.60;;;;;;5052814;28;20036;-83
2021/01/23 04:52:46;;;;;;;24.50;14.23;;;3.20;97.60;;;;;;5033240;28;20032;-82
2021/01/23 04:55:13;;;;;;;21.77;13.23;;;3.20;97.60;;;;;;5036405;28;20056;-86
2021/01/23 04:57:44;;;;;;;18.33;12.00;;;3.20;97.60;;;;;;5033402;28;20040;-82
2021/01/23 05:00:13;;;;;;;17.43;11.67;;;3.20;97.60;;;;;;5069048;28;20052;-82
2021/01/23 05:02:40;;;;;;;17.80;10.57;;;3.20;97.60;;;;;;5068568;28;20055;-82
2021/01/23 05:05:07;;;;;;;19.37;11.27;;;3.20;97.70;;;;;;5069079;28;20036;-82
2021/01/23 05:07:39;;;;;;;18.90;11.03;;;3.20;97.70;;;;;;5051179;28;20036;-82
2021/01/23 05:10:23;;;;;;;17.30;10.77;;;3.20;97.70;;;;;;5083803;28;20040;-82
2021/01/23 05:12:58;;;;;;;14.63;9.30;;;3.20;97.70;;;;;;5066973;28;20055;-82
2021/01/23 05:15:28;;;;;;;19.27;12.07;;;3.20;97.70;;;;;;5075131;28;20056;-82
2021/01/23 05:18:07;;;;;;;21.57;12.50;;;3.20;97.60;;;;;;5083875;28;20040;-82
2021/01/23 05:20:52;;;;;;;18.60;11.23;;;3.20;97.70;;;;;;5067545;28;20048;-82
2021/01/23 05:23:28;;;;;;;21.63;12.47;;;3.20;97.70;;;;;;5080191;28;20047;-82
2021/01/23 05:26:00;;;;;;;19.27;10.77;;;3.30;97.70;;;;;;5054455;28;20760;-82
2021/01/23 05:28:34;;;;;;;17.17;10.40;;;3.20;97.60;;;;;;5066226;28;20032;-82
2021/01/23 05:31:04;;;;;;;15.30;9.50;;;3.20;97.60;;;;;;5067531;28;20286;-82
2021/01/23 05:33:33;;;;;;;18.63;10.37;;;3.20;97.70;;;;;;5067828;28;20028;-82
2021/01/23 05:36:08;;;;;;;18.90;11.97;;;3.20;97.70;;;;;;5052242;28;20047;-82
2021/01/23 05:38:42;;;;;;;19.27;12.10;;;3.20;97.80;;;;;;5049702;28;20044;-82
2021/01/23 05:41:10;;;;;;;22.57;13.43;;;3.30;97.90;;;;;;5059075;28;20048;-82
2021/01/23 05:43:49;;;;;;;24.73;14.43;;;3.30;97.80;;;;;;5069593;28;20036;-82
2021/01/23 05:46:27;;;;;;;19.63;12.17;;;3.40;97.80;;;;;;5084468;28;20043;-83
2021/01/23 05:48:55;;;;;;;25.03;13.50;;;3.40;97.80;;;;;;5086649;28;20040;-82
2021/01/23 05:51:23;;;;;;;23.57;12.83;;;3.40;97.80;;;;;;5069921;28;20040;-82
2021/01/23 05:53:50;;;;;;;21.53;12.43;;;3.50;97.80;;;;;;5047468;28;20396;-81
2021/01/23 05:56:17;;;;;;;19.10;11.70;;;3.50;97.80;;;;;;5094518;28;20070;-82
2021/01/23 05:58:45;;;;;;;22.30;13.17;;;3.50;97.70;;;;;;5060244;28;20082;-82
2021/01/23 06:01:17;;;;;;;20.27;11.00;;;3.50;97.70;;;;;;5051613;28;20050;-82
2021/01/23 06:03:44;;;;;;;18.02;11.25;;;3.50;97.70;;;;;;5086670;28;20052;-82
2021/01/23 06:06:11;;;;;;;20.70;12.97;;;3.60;97.70;;;;;;5037875;28;20040;-82
2021/01/23 06:08:44;;;;;;;20.00;12.20;;;3.60;97.70;;;;;;5052005;28;20740;-81
2021/01/23 06:11:20;;;;;;;20.57;11.90;;;3.60;97.70;;;;;;5074856;28;20063;-81
2021/01/23 06:13:50;;;;;;;17.13;10.53;;;3.60;97.70;;;;;;5082515;28;20791;-83
2021/01/23 06:16:32;;;;;;;17.93;10.83;;;3.60;97.70;;;;;;5066402;28;20032;-82
2021/01/23 06:19:00;;;;;;;17.97;12.13;;;3.60;97.70;;;;;;5084280;28;20036;-83
2021/01/23 06:21:42;;;;;;;20.63;11.77;;;3.60;97.70;;;;;;5051531;28;20043;-82
2021/01/23 06:24:10;;;;;;;18.90;11.33;;;3.60;97.70;;;;;;5071453;28;20052;-83
2021/01/23 06:26:55;;;;;;;21.70;12.10;;;3.60;97.70;;;;;;5036871;28;20032;-82
2021/01/23 06:29:36;;;;;;;16.63;10.63;;;3.50;97.70;;;;;;5071200;28;20082;-82
2021/01/23 06:32:12;;;;;;;20.40;12.63;;;3.50;97.70;;;;;;5088257;28;20390;-83
2021/01/23 06:34:50;;;;;;;20.13;10.87;;;3.50;97.80;;;;;;5071970;28;20046;-82
2021/01/23 06:37:33;;;;;;;19.23;12.07;;;3.50;97.80;;;;;;5053261;28;20404;-82
2021/01/23 06:40:14;;;;;;;21.57;14.20;;;3.50;97.80;;;;;;5070799;28;20036;-82
2021/01/23 06:42:49;;;;;;;26.87;15.83;;;3.60;97.80;;;;;;5070835;28;20056;-82
2021/01/23 06:45:33;;;;;;;24.17;13.93;;;3.60;97.80;;;;;;5087769;28;20052;-82
2021/01/23 06:48:00;;;;;;;18.60;13.07;;;3.60;97.80;;;;;;5078754;28;20039;-82
2021/01/23 06:50:39;;;;;;;19.40;12.30;;;3.70;97.80;;;;;;5070684;28;20036;-82
2021/01/23 06:53:26;;;;;;;20.80;11.93;;;3.70;97.80;;;;;;5054250;28;20040;-82
2021/01/23 06:55:54;;;;;;;21.70;13.20;;;3.70;97.70;;;;;;5060966;28;20048;-82
2021/01/23 06:58:23;;;;;;;20.63;13.57;;;3.70;97.70;;;;;;5087573;28;20055;-82
2021/01/23 07:00:55;;;;;;;24.67;14.27;;;3.80;97.70;;;;;;5088989;28;20572;-82
2021/01/23 07:03:23;;;;;;;21.07;13.80;;;3.80;97.70;;;;;;5069227;28;20048;-82
2021/01/23 07:06:09;;;;;;;18.97;13.07;;;3.80;97.70;;;;;;5101591;28;20048;-82
2021/01/23 07:08:37;;;;;;;23.80;14.60;;;3.80;97.60;;;;;;5054345;28;20040;-82
2021/01/23 07:11:03;;;;;;;20.67;13.00;;;3.80;97.60;;;;;;5088365;28;20040;-82
2021/01/23 07:13:30;;;;;;;23.47;13.67;;;3.80;97.60;;;;;;5069657;28;20055;-82
2021/01/23 07:15:56;;;;;;;19.50;12.90;;;3.90;97.60;;;;;;5052557;28;20045;-83
2021/01/23 07:18:25;;;;;;;21.83;15.20;;;3.90;97.90;;;;;;5054954;28;20051;-83
2021/01/23 07:20:52;;;;;;;22.87;15.70;;;3.90;97.60;;;;;;5070862;28;20047;-82
2021/01/23 07:23:19;;;;;;;24.80;14.63;;;3.90;97.50;;;;;;5087882;28;20398;-82
2021/01/23 07:25:47;;;;;;;22.23;14.53;;;3.90;97.50;;;;;;5087056;28;20683;-82
2021/01/23 07:28:20;;;;;;;24.83;13.90;;;3.90;97.50;;;;;;5085444;28;20487;-82
2021/01/23 07:30:47;;;;;;;22.93;14.77;;;3.90;97.50;;;;;;5068262;28;20048;-82
2021/01/23 07:33:29;;;;;;;24.67;14.50;;;3.90;97.50;;;;;;5085905;28;20486;-82
2021/01/23 07:35:55;;;;;;;23.33;14.67;;;3.90;97.50;;;;;;5070196;28;20031;-82
2021/01/23 07:38:22;;;;;;;20.83;12.77;;;4.00;97.50;;;;;;5054001;28;20036;-82
2021/01/23 07:40:54;;;;;;;23.93;13.90;;;4.00;97.50;;;;;;5069956;28;20506;-82
2021/01/23 07:43:21;;;;;;;24.80;15.00;;;3.90;97.40;;;;;;5088859;28;20048;-82
2021/01/23 07:45:48;;;;;;;25.60;14.07;;;3.90;97.40;;;;;;5053101;28;20063;-83
2021/01/23 07:48:14;;;;;;;20.97;13.00;;;3.90;97.40;;;;;;5037786;28;20036;-82
2021/01/23 07:50:46;;;;;;;26.57;14.07;;;3.90;97.40;;;;;;5068188;28;20033;-83
2021/01/23 07:53:21;;;;;;;24.20;13.80;;;3.90;97.50;;;;;;5068156;28;20040;-83
2021/01/23 07:55:48;;;;;;;19.13;14.30;;;3.80;97.50;;;;;;5034920;28;20049;-83
2021/01/23 07:58:15;;;;;;;28.27;13.43;;;3.80;97.40;;;;;;5014266;28;20110;-86
2021/01/23 08:00:42;;;;;;;19.93;11.47;;;3.70;97.40;;;;;;5027577;28;20036;-85
2021/01/23 08:03:09;;;;;;;23.13;12.60;;;3.70;97.50;;;;;;5047533;28;20043;-82
2021/01/23 08:05:57;;;;;;;19.57;12.67;;;3.60;97.50;;;;;;5045861;28;20057;-81
2021/01/23 08:08:39;;;;;;;22.40;13.23;;;3.60;97.60;;;;;;5028616;28;20728;-81
2021/01/23 08:11:06;;;;;;;24.05;13.02;;;3.60;97.60;;;;;;5046759;28;20800;-81
2021/01/23 08:13:35;;;;;;;19.23;11.80;;;3.60;97.70;;;;;;5039691;28;20034;-82
2021/01/23 08:16:09;;;;;;;19.27;13.43;;;3.60;97.70;;;;;;5029856;28;20040;-82
2021/01/23 08:18:37;;;;;;;26.53;15.00;;;3.60;97.70;;;;;;5030248;28;20048;-82
2021/01/23 08:21:15;;;;;;;23.27;14.53;;;3.70;97.70;;;;;;5030171;28;20033;-82
2021/01/23 08:23:41;;;;;;;26.60;15.10;;;3.80;97.70;;;;;;5045995;28;20053;-82
2021/01/23 08:26:08;;;;;;;24.73;13.83;;;3.90;97.70;;;;;;5047523;28;20036;-82
2021/01/23 08:28:37;;;;;;;25.20;13.40;;;3.90;97.60;;;;;;5013813;28;20037;-81
2021/01/23 08:31:20;;;;;;;26.20;13.77;;;4.00;97.60;;;;;;5045543;28;20045;-82
2021/01/23 08:33:54;;;;;;;19.90;12.10;;;4.10;97.60;;;;;;5030285;28;20530;-82
2021/01/23 08:36:25;;;;;;;18.87;12.07;;;4.10;97.50;;;;;;5045763;28;20510;-82
2021/01/23 08:39:02;;;;;;;26.77;14.37;;;4.20;97.40;;;;;;5010989;28;20044;-82
2021/01/23 08:41:29;;;;;;;19.53;12.40;;;4.20;97.40;;;;;;5044446;28;20045;-83
2021/01/23 08:43:56;;;;;;;24.80;13.13;;;4.10;97.20;;;;;;5012267;28;20057;-83
2021/01/23 08:46:22;;;;;;;23.67;11.93;;;4.10;97.20;;;;;;5045785;28;20052;-82
2021/01/23 08:48:50;;;;;;;23.10;11.60;;;4.00;97.20;;;;;;5030358;28;20033;-82
2021/01/23 08:51:17;;;;;;;16.77;11.77;;;4.00;97.30;;;;;;5013670;28;20064;-82
2021/01/23 08:53:44;;;;;;;15.33;9.13;;;4.00;97.40;;;;;;5026189;28;20144;-83
2021/01/23 08:56:12;;;;;;;20.13;10.47;;;4.10;97.50;;;;;;5052416;28;20059;-82
2021/01/23 08:58:39;;;;;;;16.67;9.90;;;4.10;97.50;;;;;;5087464;28;20035;-82
2021/01/23 09:01:05;;;;;;;12.70;8.07;;;4.20;97.40;;;;;;5075587;28;20071;-82
2021/01/23 09:03:32;;;;;;;16.07;9.90;;;4.20;97.30;;;;;;5069149;28;20051;-81
2021/01/23 09:05:59;;;;;;;17.10;10.40;;;4.20;97.30;;;;;;5101305;28;20048;-82
2021/01/23 09:08:25;;;;;;;15.17;9.03;;;4.10;97.30;;;;;;5051757;28;20506;-81
2021/01/23 09:10:51;;;;;;;17.77;10.33;;;4.00;97.40;;;;;;5068356;28;20039;-81
2021/01/23 09:13:18;;;;;;;12.38;9.00;;;4.00;97.50;;;;;;5035506;28;20039;-81
2021/01/23 09:15:45;;;;;;;18.40;10.93;;;4.00;97.50;;;;;;5069841;28;20044;-81
2021/01/23 09:18:11;;;;;;;13.00;8.97;;;4.00;97.60;;;;;;5047495;28;20036;-82
2021/01/23 09:20:38;;;;;;;20.53;11.00;;;4.00;97.50;;;;;;5052314;28;20044;-81
2021/01/23 09:23:04;;;;;;;15.73;9.67;;;4.00;97.60;;;;;;5051474;28;20040;-81
2021/01/23 09:25:31;;;;;;;17.97;10.97;;;4.10;97.90;;;;;;5035885;28;20410;-84
2021/01/23 09:28:06;;;;;;;19.47;11.57;;;4.10;97.60;;;;;;5034366;28;20038;-87
2021/01/23 09:30:39;;;;;;;15.80;9.30;;;4.20;97.60;;;;;;5066395;28;20505;-84
2021/01/23 09:33:05;;;;;;;14.90;9.63;;;4.30;97.50;;;;;;5081665;28;20585;-82
2021/01/23 09:35:32;;;;;;;17.10;10.60;;;4.40;97.50;;;;;;5053273;28;20044;-84
2021/01/23 09:37:59;;;;;;;18.37;10.07;;;4.50;97.50;;;;;;5037623;28;20043;-83
2021/01/23 09:40:25;;;;;;;12.10;8.60;;;4.50;97.40;;;;;;5069263;28;20390;-84
2021/01/23 09:42:52;;;;;;;16.38;9.40;;;4.60;97.30;;;;;;5074392;28;20040;-90
2021/01/23 09:45:22;;;;;;;16.93;8.77;;;4.70;97.30;;;;;;5072642;28;20398;-84
2021/01/23 09:47:49;;;;;;;11.60;7.17;;;4.80;97.60;;;;;;5093119;28;20046;-84
2021/01/23 09:50:21;;;;;;;12.13;8.07;;;4.80;97.30;;;;;;5070463;28;20043;-85
2021/01/23 09:52:48;;;;;;;25.20;14.70;;;4.80;97.30;;;;;;5063537;28;20039;-84
2021/01/23 09:55:16;;;;;;;18.33;10.90;;;4.90;97.30;;;;;;5098190;28;20123;-93
2021/01/23 09:57:46;;;;;;;15.70;8.47;;;5.00;97.20;;;;;;5047566;28;20406;-85
2021/01/23 10:00:13;;;;;;;15.43;9.13;;;5.00;97.00;;;;;;5050558;28;20395;-82
2021/01/23 10:02:40;;;;;;;12.67;8.93;;;5.10;97.10;;;;;;5083843;28;20732;-88
2021/01/23 10:05:11;;;;;;;12.87;8.03;;;5.20;97.10;;;;;;5059052;28;20044;-89
2021/01/23 10:07:37;;;;;;;12.53;7.60;;;5.30;97.20;;;;;;5067937;28;20391;-82
2021/01/23 10:10:05;;;;;;;9.70;6.25;;;5.40;97.40;;;;;;5078392;28;20059;-82
2021/01/23 10:12:32;;;;;;;9.15;5.93;;;5.60;97.70;;;;;;5066425;28;20037;-80
2021/01/23 10:14:59;;;;;;;10.90;6.55;;;5.80;98.00;;;;;;5063881;28;20032;-81
2021/01/23 10:17:25;;;;;;;12.15;6.50;;;6.00;98.30;;;;;;5065640;28;20376;-81
2021/01/23 10:19:52;;;;;;;8.43;4.90;;;6.30;98.60;;;;;;5083930;28;20048;-82
2021/01/23 10:22:24;;;;;;;11.80;5.35;;;6.60;98.90;;;;;;5031545;28;20130;-82
2021/01/23 10:24:51;;;;;;;8.20;4.57;;;6.90;98.80;;;;;;5081203;28;20044;-84
2021/01/23 10:27:17;;;;;;;10.15;4.40;;;7.20;98.80;;;;;;5063015;28;20036;-85
2021/01/23 10:29:44;;;;;;;7.53;3.80;;;7.60;98.40;;;;;;5059943;28;20040;-85
2021/01/23 10:32:11;;;;;;;7.28;4.13;;;7.90;98.00;;;;;;5082605;28;20541;-85
2021/01/23 10:34:37;;;;;;;6.20;3.72;;;8.10;96.90;;;;;;5033295;28;20054;-81
2021/01/23 10:37:05;;;;;;;8.25;3.97;;;8.30;97.00;;;;;;5033985;28;20028;-89
2021/01/23 10:39:38;;;;;;;6.85;2.83;;;8.50;96.10;;;;;;5066818;28;20051;-88
2021/01/23 10:42:05;;;;;;;12.23;4.50;;;8.70;95.80;;;;;;5071407;28;20055;-89
2021/01/23 10:44:38;;;;;;;9.02;3.28;;;8.80;95.10;;;;;;5084536;28;20731;-83
2021/01/23 10:47:08;;;;;;;7.85;4.35;;;8.90;94.60;;;;;;5084572;28;20040;-85
2021/01/23 10:49:36;;;;;;;7.15;3.80;;;9.10;93.70;;;;;;5083618;28;20380;-84
2021/01/23 10:52:05;;;;;;;5.40;3.28;;;9.40;93.00;;;;;;5067439;28;20478;-82
2021/01/23 10:54:32;;;;;;;6.25;2.80;;;9.40;90.60;;;;;;5060593;28;20032;-81
2021/01/23 10:56:59;;;;;;;6.82;2.85;;;9.20;90.00;;;;;;5087166;28;20652;-89
2021/01/23 10:59:26;;;;;;;5.45;3.10;;;9.00;89.50;;;;;;5066733;28;20024;-80
2021/01/23 11:01:52;;;;;;;11.27;3.55;;;8.70;89.30;;;;;;5082757;28;20044;-79
2021/01/23 11:04:19;;;;;;;5.25;3.45;;;8.40;89.10;;;;;;5032599;28;20879;-81
2021/01/23 11:06:49;;;;;;;7.75;3.45;;;8.10;89.30;;;;;;5062325;28;20055;-82
2021/01/23 11:09:15;;;;;;;10.93;3.85;;;7.90;89.00;;;;;;5068302;28;20036;-80
2021/01/23 11:11:42;;;;;;;7.35;4.05;;;7.70;89.10;;;;;;5070771;28;20031;-81
2021/01/23 11:14:08;;;;;;;6.20;3.40;;;7.60;88.80;;;;;;5058146;28;20067;-80
2021/01/23 11:16:36;;;;;;;9.15;3.97;;;7.50;89.70;;;;;;5080599;28;20108;-80
2021/01/23 11:19:02;;;;;;;6.72;3.60;;;7.50;90.00;;;;;;5067109;28;20047;-81
2021/01/23 11:21:29;;;;;;;6.68;2.47;;;7.40;90.30;;;;;;5070604;28;20040;-80
2021/01/23 11:23:57;;;;;;;8.57;3.78;;;7.50;90.40;;;;;;5087243;28;20394;-83
2021/01/23 11:26:23;;;;;;;8.63;3.65;;;7.50;90.50;;;;;;5053428;28;20840;-81
2021/01/23 11:28:50;;;;;;;8.38;3.20;;;7.60;90.50;;;;;;5087489;28;20044;-80
2021/01/23 11:31:17;;;;;;;7.07;4.15;;;7.60;90.50;;;;;;5060070;28;20032;-81
2021/01/23 11:33:43;;;;;;;10.27;4.32;;;7.70;90.70;;;;;;5103926;28;20044;-80
2021/01/23 11:36:10;;;;;;;7.38;3.30;;;7.80;90.50;;;;;;5082259;28;20056;-82
2021/01/23 11:38:36;;;;;;;8.38;3.58;;;7.90;90.50;;;;;;5098503;28;20403;-81
2021/01/23 11:41:05;;;;;;;6.32;3.38;;;7.90;90.30;;;;;;5050331;28;20040;-81
2021/01/23 11:43:32;;;;;;;8.88;3.75;;;7.80;90.20;;;;;;5068114;28;20055;-90
2021/01/23 11:46:00;;;;;;;6.95;3.97;;;7.80;90.00;;;;;;5068469;28;20078;-83
2021/01/23 11:48:27;;;;;;;4.38;3.10;;;7.70;90.30;;;;;;5084952;28;20505;-82
2021/01/23 11:50:54;;;;;;;5.93;3.50;;;7.70;90.40;;;;;;5051769;28;20036;-82
2021/01/23 11:53:20;;;;;;;8.18;2.85;;;7.70;90.60;;;;;;5068481;28;20040;-84
2021/01/23 11:55:49;;;;;;;6.00;3.10;;;7.80;90.50;;;;;;5069402;28;20067;-84
2021/01/23 11:58:16;;;;;;;7.63;3.05;;;7.80;89.90;;;;;;5082017;28;20036;-84
2021/01/23 12:00:43;;;;;;;7.82;3.42;;;7.70;90.00;;;;;;5084806;28;20051;-83
2021/01/23 12:03:10;;;;;;;9.43;2.85;;;7.50;89.90;;;;;;5067560;28;20051;-83
2021/01/23 12:05:36;;;;;;;6.30;2.67;;;7.40;90.00;;;;;;5077540;28;20040;-83
2021/01/23 12:08:03;;;;;;;6.07;2.92;;;7.30;90.20;;;;;;5064942;28;20048;-81
2021/01/23 12:10:30;;;;;;;5.75;2.85;;;7.20;90.20;;;;;;5068547;28;20046;-82
2021/01/23 12:12:56;;;;;;;4.38;2.75;;;7.10;90.40;;;;;;5084796;28;20044;-83
2021/01/23 12:15:23;;;;;;;4.88;2.47;;;7.00;90.80;;;;;;5044744;28;20620;-83
2021/01/23 12:17:52;;;;;;;8.20;2.55;;;7.00;90.60;;;;;;5074782;28;20479;-83
2021/01/23 12:20:21;;;;;;;5.35;2.65;;;7.00;90.60;;;;;;5083993;28;20043;-83
2021/01/23 12:22:51;;;;;;;3.53;2.55;;;7.00;90.70;;;;;;5066895;28;20058;-85
2021/01/23 12:25:17;;;;;;;6.28;2.85;;;6.90;90.70;;;;;;5082433;28;20051;-84
2021/01/23 12:27:47;;;;;;;7.15;3.28;;;6.90;90.70;;;;;;5068285;28;20028;-83
2021/01/23 12:30:15;;;;;;;6.40;3.03;;;6.90;90.30;;;;;;5069253;28;20036;-82
2021/01/23 12:32:42;;;;;;;8.90;3.10;;;6.90;90.50;;;;;;5068398;28;20521;-81
2021/01/23 12:35:10;;;;;;;6.78;3.30;;;6.90;90.40;;;;;;5080941;28;20040;-82
2021/01/23 12:37:38;;;;;;;4.85;2.65;;;6.90;90.30;;;;;;5067089;28;20040;-83
2021/01/23 12:40:07;;;;;;;4.82;2.70;;;6.80;90.50;;;;;;5067064;28;20051;-83
2021/01/23 12:42:34;;;;;;;8.70;3.28;;;6.80;90.50;;;;;;5084032;28;20056;-84
2021/01/23 12:45:01;;;;;;;5.32;3.25;;;6.90;90.70;;;;;;5084110;28;20054;-83
2021/01/23 12:47:29;;;;;;;6.15;2.45;;;6.90;90.60;;;;;;5083027;28;20067;-83
2021/01/23 12:49:55;;;;;;;5.22;2.25;;;6.90;90.60;;;;;;5083445;28;20036;-83
2021/01/23 12:52:22;;;;;;;8.02;3.50;;;6.90;90.70;;;;;;5083835;28;20044;-83
2021/01/23 12:54:48;;;;;;;5.93;3.00;;;6.80;90.60;;;;;;5066149;28;20060;-83